createdAt,value
2023-02-17T00:00:18.840Z,15.9
2023-02-17T00:02:20.806Z,15.7
2023-02-17T00:04:22.800Z,13.6
2023-02-17T00:06:24.801Z,15.8
2023-02-17T00:08:26.783Z,15.5
2023-02-17T00:10:28.744Z,15.3
2023-02-17T00:12:33.989Z,16.2
2023-02-17T00:14:35.946Z,17.4
2023-02-17T00:16:37.967Z,16.9
2023-02-17T00:20:41.948Z,17.2
2023-02-17T00:22:43.932Z,17
2023-02-17T00:24:45.936Z,15.7
2023-02-17T00:34:59.150Z,19.4
2023-02-17T00:37:01.141Z,18.5
2023-02-17T00:39:03.107Z,19.7
2023-02-17T00:46:14.956Z,21.2
2023-02-17T00:48:16.898Z,21
2023-02-17T00:50:18.874Z,22.4
2023-02-17T00:52:20.876Z,20.5
2023-02-17T00:54:26.106Z,23.1
2023-02-17T00:56:28.081Z,19.2
2023-02-17T01:02:34.097Z,18.5
2023-02-17T01:04:36.107Z,19.4
2023-02-17T01:06:38.054Z,20.5
2023-02-17T01:08:43.280Z,20.2
2023-02-17T01:12:47.274Z,21
2023-02-17T01:14:49.240Z,21.3
2023-02-17T01:16:51.264Z,19.9
2023-02-17T01:18:53.244Z,21.4
2023-02-17T01:20:55.251Z,20.3
2023-02-17T01:23:00.480Z,22.1
2023-02-17T01:25:02.473Z,20.8
2023-02-17T01:27:04.480Z,20.3
2023-02-17T01:29:06.446Z,19.2
2023-02-17T01:31:08.578Z,21.2
2023-02-17T01:33:10.455Z,21.5
2023-02-17T01:35:12.462Z,21.4
2023-02-17T01:37:17.646Z,22.6
2023-02-17T01:39:19.546Z,20.3
2023-02-17T01:41:21.531Z,20.6
2023-02-17T02:02:47.596Z,19.9
2023-02-17T02:13:00.581Z,18
2023-02-17T02:15:02.581Z,21.5
2023-02-17T02:17:04.554Z,19.7
2023-02-17T02:21:11.791Z,20.8
2023-02-17T02:23:13.765Z,18.9
2023-02-17T02:25:15.670Z,19.7
2023-02-17T02:27:17.657Z,18.8
2023-02-17T02:29:19.662Z,19.1
2023-02-17T02:31:21.788Z,17.2
2023-02-17T02:37:30.897Z,17.8
2023-02-17T02:39:59.708Z,19.4
2023-02-17T02:42:01.702Z,18.7
2023-02-17T02:44:03.710Z,19.6
2023-02-17T02:46:09.349Z,17.1
2023-02-17T02:48:10.930Z,16.8
2023-02-17T02:50:12.931Z,16.5
2023-02-17T02:52:14.917Z,17.8
2023-02-17T02:58:20.904Z,15.4
2023-02-17T03:00:26.111Z,16.8
2023-02-17T03:06:32.094Z,15.8
2023-02-17T03:08:34.102Z,15.6
2023-02-17T03:10:36.095Z,16.4
2023-02-17T03:12:38.085Z,13.9
2023-02-17T03:14:43.294Z,16.4
2023-02-17T03:16:45.320Z,13.8
2023-02-17T03:18:47.300Z,14.4
2023-02-17T03:22:51.280Z,12.7
2023-02-17T03:24:53.263Z,12.7
2023-02-17T03:26:55.283Z,15.7
2023-02-17T03:29:00.380Z,14.4
2023-02-17T03:31:02.386Z,13.8
2023-02-17T03:33:04.347Z,13.5
2023-02-17T03:38:11.009Z,14.1
2023-02-17T03:40:12.974Z,15.9
2023-02-17T03:42:18.182Z,15.1
2023-02-17T03:44:20.215Z,16.4
2023-02-17T03:46:22.197Z,16.3
2023-02-17T03:48:24.135Z,15.7
2023-02-17T03:50:26.125Z,16.5
2023-02-17T03:52:28.132Z,15.6
2023-02-17T03:54:30.119Z,16.4
2023-02-17T03:56:35.329Z,16.1
2023-02-17T03:58:37.360Z,15.9
2023-02-17T04:00:39.166Z,17.4
2023-02-17T04:02:44.022Z,14.6
2023-02-17T04:04:43.155Z,16
2023-02-17T04:10:52.389Z,17.8
2023-02-17T04:14:56.373Z,17.2
2023-02-17T04:19:01.903Z,16
2023-02-17T04:21:03.832Z,17.9
2023-02-17T04:25:11.090Z,15.9
2023-02-17T04:27:13.039Z,16.9
2023-02-17T04:29:15.007Z,17.4
2023-02-17T04:30:17.626Z,15.6
2023-02-17T04:32:19.622Z,18.1
2023-02-17T04:34:21.616Z,17.2
2023-02-17T04:36:23.595Z,18.2
2023-02-17T04:40:30.796Z,15.6
2023-02-17T04:42:32.776Z,15.7
2023-02-17T04:44:34.772Z,16.5
2023-02-17T04:46:36.749Z,17.1
2023-02-17T04:48:38.774Z,16.4
2023-02-17T04:50:40.746Z,17.3
2023-02-17T04:52:45.980Z,15.9
2023-02-17T04:58:51.957Z,16.9
2023-02-17T05:00:53.913Z,16.5
2023-02-17T05:02:55.911Z,17.9
2023-02-17T05:11:07.119Z,14
2023-02-17T05:13:09.132Z,15.4
2023-02-17T05:15:11.143Z,16.3
2023-02-17T05:19:15.087Z,14.2
2023-02-17T05:23:22.321Z,13.1
2023-02-17T05:26:26.943Z,15.6
2023-02-17T05:28:28.950Z,14.9
2023-02-17T05:30:30.963Z,14.4
2023-02-17T05:32:32.927Z,15.9
2023-02-17T05:34:38.140Z,15.5
2023-02-17T05:36:40.287Z,16.1
2023-02-17T05:38:42.142Z,14.8
2023-02-17T05:40:44.114Z,14.6
2023-02-17T05:42:46.086Z,16.5
2023-02-17T05:48:55.319Z,15.9
2023-02-17T05:55:01.244Z,14.7
2023-02-17T05:57:03.251Z,16.2
2023-02-17T06:03:12.518Z,16.6
2023-02-17T06:05:14.503Z,17.4
2023-02-17T06:13:22.391Z,17.9
2023-02-17T06:15:24.350Z,18
2023-02-17T06:19:31.554Z,16.3
2023-02-17T06:21:33.529Z,15.4
2023-02-17T06:24:02.370Z,17.9
2023-02-17T06:26:04.823Z,18.5
2023-02-17T06:28:06.350Z,15.4
2023-02-17T06:30:11.626Z,14.9
2023-02-17T06:32:13.653Z,18.3
2023-02-17T06:34:15.574Z,14.7
2023-02-17T06:36:17.539Z,15.7
2023-02-17T06:38:19.587Z,14.5
2023-02-17T06:42:23.517Z,16.6
2023-02-17T06:44:28.776Z,14.6
2023-02-17T06:46:30.747Z,16.5
2023-02-17T06:48:32.738Z,16.8
2023-02-17T06:50:34.713Z,15.3
2023-02-17T06:52:36.719Z,15.5
2023-02-17T06:56:40.690Z,16.6
2023-02-17T06:58:45.949Z,16.2
2023-02-17T07:02:50.079Z,16
2023-02-17T07:04:51.905Z,18
2023-02-17T07:08:55.914Z,14.1
2023-02-17T07:10:57.912Z,17
2023-02-17T07:13:03.110Z,17.6
2023-02-17T07:15:05.102Z,17.8
2023-02-17T07:17:07.090Z,16.6
2023-02-17T07:18:09.690Z,18
2023-02-17T07:20:11.662Z,15.2
2023-02-17T07:22:13.643Z,16.7
2023-02-17T07:24:15.619Z,15.6
2023-02-17T07:26:20.857Z,19.1
2023-02-17T07:28:22.813Z,14.3
2023-02-17T07:36:30.777Z,16.2
2023-02-17T07:38:33.541Z,15.3
2023-02-17T07:42:40.009Z,15.8
2023-02-17T07:44:42.002Z,14.8
2023-02-17T07:46:43.967Z,14.1
2023-02-17T07:48:45.992Z,14.9
2023-02-17T07:52:49.919Z,15.5
2023-02-17T07:54:55.142Z,15.9
2023-02-17T07:56:57.118Z,11.7
2023-02-17T07:58:59.094Z,15.8
2023-02-17T08:01:01.103Z,14.7
2023-02-17T08:03:03.084Z,12.8
2023-02-17T08:05:04.971Z,12.3
2023-02-17T08:07:06.961Z,14.8
2023-02-17T08:09:12.178Z,11.1
2023-02-17T08:14:18.780Z,13.1
2023-02-17T08:16:20.753Z,12.1
2023-02-17T08:18:22.687Z,13.1
2023-02-17T08:20:24.665Z,11.4
2023-02-17T08:22:29.922Z,14
2023-02-17T08:24:31.920Z,10.8
2023-02-17T08:26:33.928Z,12.6
2023-02-17T08:28:35.904Z,11.9
2023-02-17T08:34:41.928Z,11.2
2023-02-17T08:40:50.995Z,12.6
2023-02-17T08:42:52.996Z,14.3
2023-02-17T08:44:54.982Z,10.6
2023-02-17T08:46:56.985Z,12.7
2023-02-17T08:48:58.961Z,11.9
2023-02-17T08:51:04.253Z,10
2023-02-17T08:53:06.237Z,10.9
2023-02-17T08:55:08.211Z,11.1
2023-02-17T08:57:10.209Z,12.9
2023-02-17T08:59:12.159Z,12.2
2023-02-17T09:01:14.119Z,10.5
2023-02-17T09:03:16.087Z,11.6
2023-02-17T09:05:21.274Z,10.8
2023-02-17T09:07:23.262Z,10.7
2023-02-17T09:09:25.239Z,12.3
2023-02-17T09:14:31.767Z,10.8
2023-02-17T09:16:33.728Z,9.7
2023-02-17T09:20:40.787Z,10.6
2023-02-17T09:22:42.737Z,10.4
2023-02-17T09:24:44.749Z,11.9
2023-02-17T09:32:55.841Z,9.5
2023-02-17T09:34:57.758Z,9.2
2023-02-17T09:41:03.415Z,9.4
2023-02-17T09:43:05.425Z,10.4
2023-02-17T09:45:07.456Z,9.1
2023-02-17T09:47:12.497Z,8.9
2023-02-17T09:49:14.326Z,9.1
2023-02-17T09:51:16.304Z,7.8
2023-02-17T09:59:23.950Z,7.6
2023-02-17T10:01:28.937Z,8.4
2023-02-17T10:08:01.444Z,8.8
2023-02-17T10:10:04.871Z,6.4
2023-02-17T10:16:13.722Z,7.2
2023-02-17T10:18:15.637Z,7
2023-02-17T10:22:19.411Z,6.8
2023-02-17T10:28:28.153Z,6.7
2023-02-17T10:30:30.077Z,5.9
2023-02-17T10:32:32.083Z,6.7
2023-02-17T10:34:33.755Z,6
2023-02-17T10:36:35.746Z,6
2023-02-17T10:38:37.540Z,6.6
2023-02-17T10:40:39.529Z,6.7
2023-02-17T10:42:44.668Z,5.7
2023-02-17T10:44:46.545Z,6.8
2023-02-17T10:46:48.583Z,4.3
2023-02-17T10:52:54.115Z,6.5
2023-02-17T10:54:55.969Z,5.8
2023-02-17T10:59:02.895Z,4.5
2023-02-17T11:01:04.872Z,5.8
2023-02-17T11:12:19.850Z,7
2023-02-17T11:16:23.671Z,6.3
2023-02-17T11:18:25.505Z,5.4
2023-02-17T11:20:27.369Z,6.2
2023-02-17T11:24:34.292Z,6.1
2023-02-17T11:26:36.220Z,5.3
2023-02-17T11:28:38.067Z,6.7
2023-02-17T11:30:39.928Z,6.9
2023-02-17T11:34:43.697Z,5.5
2023-02-17T11:36:45.605Z,6.4
2023-02-17T11:38:50.834Z,5.6
2023-02-17T11:44:56.583Z,6.7
2023-02-17T11:46:58.573Z,7.5
2023-02-17T11:55:09.466Z,6
2023-02-17T11:57:11.355Z,6.2
2023-02-17T11:58:14.078Z,6.2
2023-02-17T12:00:15.770Z,7.5
2023-02-17T12:02:17.692Z,6.5
2023-02-17T12:04:19.559Z,6.3
2023-02-17T12:06:24.589Z,9.8
2023-02-17T12:08:26.990Z,7.1
2023-02-17T12:10:28.478Z,7.1
2023-02-17T12:14:32.495Z,6.9
2023-02-17T12:16:34.510Z,7.6
2023-02-17T12:18:36.354Z,8.2
2023-02-17T12:20:41.369Z,6.8
2023-02-17T12:22:43.260Z,7.5
2023-02-17T12:24:45.160Z,6.4
2023-02-17T12:26:47.028Z,7.1
2023-02-17T12:43:05.749Z,7.6
2023-02-17T12:45:07.636Z,7.5
2023-02-17T12:47:09.520Z,9
2023-02-17T12:49:14.729Z,8.9
2023-02-17T12:51:16.701Z,9.1
2023-02-17T12:53:18.687Z,9.7
2023-02-17T12:54:21.297Z,8.5
2023-02-17T12:56:23.295Z,8.4
2023-02-17T12:58:25.173Z,8.2
2023-02-17T13:00:27.343Z,9
2023-02-17T13:02:32.414Z,11.9
2023-02-17T13:04:34.381Z,8.7
2023-02-17T13:06:36.380Z,10.1
2023-02-17T13:08:38.379Z,9.8
2023-02-17T13:14:44.334Z,10.9
2023-02-17T13:16:49.543Z,10.1
2023-02-17T13:22:55.495Z,9.2
2023-02-17T13:26:59.467Z,10.8
2023-02-17T13:29:01.477Z,10.2
2023-02-17T13:31:06.818Z,10.7
2023-02-17T13:33:08.692Z,8
2023-02-17T13:39:14.685Z,7
2023-02-17T13:43:18.636Z,7.8
2023-02-17T13:45:23.853Z,10.3
2023-02-17T13:47:25.841Z,9.7
2023-02-17T13:49:27.869Z,8
2023-02-17T13:51:56.557Z,9.5
2023-02-17T13:53:58.530Z,8.4
2023-02-17T13:56:00.520Z,9.6
2023-02-17T13:58:05.785Z,8.8
2023-02-17T14:00:07.781Z,8.3
2023-02-17T14:02:09.743Z,9.1
2023-02-17T14:04:11.732Z,8.3
2023-02-17T14:06:13.703Z,8.6
2023-02-17T14:08:15.689Z,7.2
2023-02-17T14:10:17.570Z,8.1
2023-02-17T14:12:22.587Z,7.9
2023-02-17T14:14:24.492Z,9
2023-02-17T14:16:26.396Z,7.3
2023-02-17T14:18:28.379Z,7.6
2023-02-17T14:20:30.394Z,6.5
2023-02-17T14:24:34.266Z,6.8
2023-02-17T14:28:41.410Z,5.9
2023-02-17T14:30:43.494Z,5.4
2023-02-17T14:32:45.319Z,5.8
2023-02-17T14:34:47.242Z,5.2
2023-02-17T14:36:49.115Z,5.7
2023-02-17T14:38:51.008Z,4.8
2023-02-17T14:40:56.195Z,5.8
2023-02-17T14:42:58.014Z,8.1
2023-02-17T14:44:59.916Z,5.7
2023-02-17T14:50:06.207Z,5.9
2023-02-17T14:52:08.132Z,4.4
2023-02-17T14:54:13.209Z,5.1
2023-02-17T14:56:15.190Z,4.5
2023-02-17T14:58:17.067Z,4.3
2023-02-17T15:00:18.950Z,4.5
2023-02-17T15:06:26.509Z,3.5
2023-02-17T15:08:29.737Z,4.4
2023-02-17T15:10:31.629Z,3.4
2023-02-17T15:12:33.508Z,3.9
2023-02-17T15:14:35.384Z,3.1
2023-02-17T15:16:37.285Z,4.4
2023-02-17T15:18:39.281Z,3.4
2023-02-17T15:20:42.046Z,4.4
2023-02-17T15:22:47.052Z,5
2023-02-17T15:24:48.942Z,3.5
2023-02-17T15:26:50.877Z,3.6
2023-02-17T15:28:52.709Z,4.2
2023-02-17T15:30:54.651Z,3.6
2023-02-17T15:32:56.590Z,4.1
2023-02-17T15:34:58.478Z,3.3
2023-02-17T15:37:03.483Z,3.3
2023-02-17T15:39:05.397Z,3.5
2023-02-17T15:41:07.288Z,4.8
2023-02-17T15:42:09.783Z,5.2
2023-02-17T15:44:11.763Z,4.4
2023-02-17T15:46:13.705Z,3.7
2023-02-17T15:48:15.675Z,4
2023-02-17T15:50:20.961Z,5.2
2023-02-17T15:52:22.578Z,4.1
2023-02-17T15:54:24.439Z,4.1
2023-02-17T15:56:26.317Z,4.9
2023-02-17T15:58:28.219Z,3.5
2023-02-17T16:00:30.098Z,3.9
2023-02-17T16:02:33.537Z,4.2
2023-02-17T16:04:38.483Z,3.4
2023-02-17T16:06:40.366Z,3.3
2023-02-17T16:08:42.243Z,4.8
2023-02-17T16:10:44.151Z,4.2
2023-02-17T16:12:46.059Z,3.7
2023-02-17T16:14:47.933Z,4.8
2023-02-17T16:16:49.855Z,3.9
2023-02-17T16:18:54.940Z,4.8
2023-02-17T16:20:56.849Z,4.7
2023-02-17T16:22:58.729Z,3.8
2023-02-17T16:27:02.488Z,3.8
2023-02-17T16:29:04.386Z,4.7
2023-02-17T16:31:06.249Z,6.6
2023-02-17T16:33:11.272Z,6.3
2023-02-17T16:35:13.239Z,3.6
2023-02-17T16:38:17.743Z,4.2
2023-02-17T16:40:19.650Z,5.3
2023-02-17T16:42:21.500Z,4.1
2023-02-17T16:44:23.425Z,4.7
2023-02-17T16:46:28.524Z,3.8
2023-02-17T16:48:30.415Z,5.7
2023-02-17T16:50:32.296Z,4.4
2023-02-17T16:52:34.201Z,4.7
2023-02-17T16:54:36.078Z,5.1
2023-02-17T16:56:37.960Z,5
2023-02-17T16:58:39.829Z,4.5
2023-02-17T17:00:44.859Z,4.2
2023-02-17T17:02:46.795Z,5.2
2023-02-17T17:04:48.598Z,4.1
2023-02-17T17:06:50.474Z,4.5
2023-02-17T17:08:52.345Z,4.5
2023-02-17T17:10:54.253Z,3.9
2023-02-17T17:12:56.122Z,5.7
2023-02-17T17:15:01.168Z,5.8
2023-02-17T17:19:04.906Z,5.6
2023-02-17T17:21:06.775Z,5.5
2023-02-17T17:23:08.690Z,5.2
2023-02-17T17:25:10.564Z,8.4
2023-02-17T17:27:12.433Z,6.8
2023-02-17T17:29:17.453Z,7.1
2023-02-17T17:31:19.361Z,6.8
2023-02-17T17:33:21.183Z,5.8
2023-02-17T17:39:53.508Z,5
2023-02-17T17:48:04.182Z,4.6
2023-02-17T17:50:07.110Z,4.9
2023-02-17T17:52:07.945Z,6.7
2023-02-17T17:54:09.811Z,5.7
2023-02-17T17:58:16.724Z,4.7
2023-02-17T18:00:18.648Z,4
2023-02-17T18:02:20.489Z,5.1
2023-02-17T18:04:22.386Z,6
2023-02-17T18:06:24.230Z,5.6
2023-02-17T18:10:31.137Z,4.5
2023-02-17T18:12:32.999Z,4.5
2023-02-17T18:14:34.894Z,7
2023-02-17T18:16:36.781Z,5.7
2023-02-17T18:18:38.659Z,6.6
2023-02-17T18:20:40.514Z,6.2
2023-02-17T18:24:47.470Z,7.2
2023-02-17T18:26:49.262Z,6
2023-02-17T18:33:57.451Z,7.3
2023-02-17T18:35:59.305Z,6.8
2023-02-17T18:38:04.313Z,8.9
2023-02-17T18:40:06.172Z,7.3
2023-02-17T18:42:08.066Z,7.6
2023-02-17T18:44:09.945Z,8
2023-02-17T18:48:13.676Z,12.1
2023-02-17T18:52:20.587Z,8.9
2023-02-17T18:54:22.456Z,8
2023-02-17T18:56:24.325Z,8.5
2023-02-17T19:00:28.095Z,8.8
2023-02-17T19:02:29.995Z,7.6
2023-02-17T19:04:31.836Z,7.4
2023-02-17T19:06:36.850Z,9.3
2023-02-17T19:08:38.720Z,8.8
2023-02-17T19:10:40.620Z,9.1
2023-02-17T19:12:42.472Z,8
2023-02-17T19:14:44.350Z,8.4
2023-02-17T19:16:46.214Z,8.3
2023-02-17T19:18:48.121Z,8.2
2023-02-17T19:20:53.123Z,9.7
2023-02-17T19:24:57.003Z,7.7
2023-02-17T19:28:01.384Z,9.4
2023-02-17T19:30:03.326Z,9
2023-02-17T19:32:05.144Z,7.1
2023-02-17T19:42:17.771Z,7.3
2023-02-17T19:44:19.641Z,6.5
2023-02-17T19:46:21.558Z,6.6
2023-02-17T19:48:26.549Z,10.5
2023-02-17T19:50:28.446Z,8.3
2023-02-17T19:52:30.310Z,7.7
2023-02-17T19:54:32.292Z,7.9
2023-02-17T19:56:34.170Z,6.8
2023-02-17T19:58:36.007Z,6.2
2023-02-17T20:00:37.901Z,6.8
2023-02-17T20:02:42.971Z,7.5
2023-02-17T20:04:44.790Z,6.1
2023-02-17T20:08:48.669Z,6.8
2023-02-17T20:22:06.072Z,6.4
2023-02-17T20:24:07.942Z,5.7
2023-02-17T20:26:10.167Z,5.4
2023-02-17T20:28:11.916Z,6.6
2023-02-17T20:30:17.037Z,9.3
2023-02-17T20:32:19.081Z,5
2023-02-17T20:34:20.777Z,6.9
2023-02-17T20:36:22.757Z,5.8
2023-02-17T20:38:24.640Z,7.3
2023-02-17T20:40:26.611Z,6.1
2023-02-17T20:42:28.497Z,7
2023-02-17T20:44:33.738Z,6.1
2023-02-17T20:46:35.619Z,6.2
2023-02-17T20:48:37.453Z,6.2
2023-02-17T20:50:39.315Z,8.5
2023-02-17T20:52:41.203Z,6.4
2023-02-17T20:54:43.065Z,6.9
2023-02-17T20:56:44.950Z,5.9
2023-02-17T20:58:49.928Z,6.2
2023-02-17T21:00:51.925Z,7.9
2023-02-17T21:02:53.778Z,5.5
2023-02-17T21:04:55.705Z,6.4
2023-02-17T21:06:58.945Z,5.6
2023-02-17T21:08:59.685Z,6.4
2023-02-17T21:11:01.524Z,6.6
2023-02-17T21:19:39.133Z,9.1
2023-02-17T21:21:41.032Z,7
2023-02-17T21:23:42.982Z,6.6
2023-02-17T21:25:48.226Z,8.3
2023-02-17T21:27:50.221Z,8.5
2023-02-17T21:29:52.173Z,7.4
2023-02-17T21:31:54.145Z,9
2023-02-17T21:33:55.954Z,8.5
2023-02-17T21:37:59.819Z,9.2
2023-02-17T21:40:05.036Z,11.4
2023-02-17T21:42:06.935Z,6.8
2023-02-17T21:44:08.889Z,7.3
2023-02-17T21:46:10.912Z,7
2023-02-17T21:48:12.649Z,8.9
2023-02-17T21:50:14.605Z,10.4
2023-02-17T21:52:16.646Z,10.1
2023-02-17T21:54:23.289Z,11.4
2023-02-17T21:56:25.262Z,11.3
2023-02-17T22:00:29.130Z,12.3
2023-02-17T22:02:30.975Z,17.6
2023-02-17T22:04:32.877Z,12.7
2023-02-17T22:06:34.846Z,15.5
2023-02-17T22:08:39.952Z,16.4
2023-02-17T22:10:41.917Z,14.7
2023-02-17T22:12:43.906Z,15.5
2023-02-17T22:13:46.533Z,16.7
2023-02-17T22:15:48.401Z,14.8
2023-02-17T22:17:50.298Z,14.7
2023-02-17T22:19:52.153Z,14.3
2023-02-17T22:21:57.259Z,17.7
2023-02-17T22:23:59.140Z,16.7
2023-02-17T22:26:01.024Z,16.1
2023-02-17T22:28:02.977Z,14.7
2023-02-17T22:30:05.001Z,15.6
2023-02-17T22:32:06.979Z,16
2023-02-17T22:34:08.951Z,16.1
2023-02-17T22:36:14.124Z,17.4
2023-02-17T22:38:16.007Z,17.8
2023-02-17T22:40:17.995Z,16.1
2023-02-17T22:42:19.964Z,18.2
2023-02-17T22:44:21.940Z,16.3
2023-02-17T22:50:31.131Z,17
2023-02-17T22:58:39.026Z,17.4
2023-02-17T23:00:41.013Z,16
2023-02-17T23:02:42.970Z,18.4
2023-02-17T23:06:50.167Z,20.1
2023-02-17T23:09:54.751Z,20.2
2023-02-17T23:16:00.641Z,22.4
2023-02-17T23:18:05.833Z,23.6
2023-02-17T23:22:09.791Z,24.7
2023-02-17T23:24:11.773Z,24.3
2023-02-17T23:26:13.752Z,23.8
2023-02-17T23:30:17.729Z,25.5
2023-02-17T23:32:22.920Z,30.2
2023-02-17T23:34:24.878Z,30.5
2023-02-17T23:36:26.861Z,35
2023-02-17T23:38:28.838Z,30.5
2023-02-17T23:40:30.847Z,30.5
2023-02-17T23:42:32.801Z,33.2
2023-02-17T23:44:34.754Z,30.8
2023-02-17T23:46:39.874Z,37.3
2023-02-17T23:48:41.825Z,38.3
2023-02-17T23:50:43.757Z,31.7
2023-02-17T23:52:45.724Z,33.7
2023-02-17T23:56:49.661Z,34.2
2023-02-17T23:58:51.615Z,36.3
